createdAt,value
2018-12-18T00:00:24.234Z,24.75
2018-12-18T00:01:28.502Z,26.25
2018-12-18T00:02:31.058Z,27.95
2018-12-18T00:03:39.185Z,25.27
2018-12-18T00:04:39.495Z,26.25
2018-12-18T00:05:42.012Z,26.87
2018-12-18T00:06:44.530Z,25.17
2018-12-18T00:07:47.045Z,22.58
2018-12-18T00:08:49.642Z,25.82
2018-12-18T00:09:52.185Z,22.15
2018-12-18T00:10:56.642Z,26.17
2018-12-18T00:11:59.476Z,21.75
2018-12-18T00:13:02.125Z,27.80
2018-12-18T00:14:04.650Z,26.82
2018-12-18T00:15:07.291Z,24.18
2018-12-18T00:16:09.805Z,23.50
2018-12-18T00:17:12.317Z,29.07
2018-12-18T00:18:14.837Z,25.05
2018-12-18T00:19:17.373Z,26.27
2018-12-18T00:20:19.880Z,24.98
2018-12-18T00:21:22.397Z,22.25
2018-12-18T00:22:24.907Z,21.35
2018-12-18T00:23:27.465Z,27.50
2018-12-18T00:24:29.978Z,26.00
2018-12-18T00:25:32.489Z,22.90
2018-12-18T00:26:35.053Z,30.95
2018-12-18T00:27:37.565Z,19.73
2018-12-18T00:28:40.105Z,25.15
2018-12-18T00:29:42.625Z,25.75
2018-12-18T00:31:54.094Z,20.70
2018-12-18T00:32:56.609Z,20.55
2018-12-18T00:33:59.121Z,22.82
2018-12-18T00:35:01.653Z,25.57
2018-12-18T00:36:04.269Z,25.92
2018-12-18T00:37:06.790Z,22.25
2018-12-18T00:38:09.305Z,21.00
2018-12-18T00:39:13.017Z,24.98
2018-12-18T00:40:15.565Z,20.35
2018-12-18T00:41:18.157Z,18.92
2018-12-18T00:42:20.797Z,21.75
2018-12-18T00:43:23.341Z,20.30
2018-12-18T00:44:25.856Z,19.75
2018-12-18T00:45:28.398Z,19.87
2018-12-18T00:46:30.969Z,30.37
2018-12-18T00:47:33.486Z,26.48
2018-12-18T00:48:35.994Z,23.20
2018-12-18T00:49:38.550Z,20.77
2018-12-18T00:50:41.093Z,19.90
2018-12-18T00:51:43.606Z,21.55
2018-12-18T00:52:46.117Z,21.90
2018-12-18T00:53:48.638Z,23.47
2018-12-18T00:54:51.185Z,20.90
2018-12-18T00:55:53.695Z,19.92
2018-12-18T00:56:56.241Z,25.70
2018-12-18T00:57:58.766Z,23.80
2018-12-18T00:59:01.284Z,20.40
2018-12-18T01:00:06.729Z,28.65
2018-12-18T01:01:09.285Z,29.42
2018-12-18T01:02:11.816Z,27.30
2018-12-18T01:03:14.357Z,24.25
2018-12-18T01:04:16.877Z,25.70
2018-12-18T01:05:19.436Z,21.60
2018-12-18T01:06:21.981Z,21.62
2018-12-18T01:07:24.493Z,24.35
2018-12-18T01:08:26.997Z,22.87
2018-12-18T01:09:29.509Z,28.27
2018-12-18T01:10:32.016Z,24.15
2018-12-18T01:11:34.558Z,26.25
2018-12-18T01:12:37.066Z,31.35
2018-12-18T01:13:39.573Z,24.45
2018-12-18T01:14:42.093Z,27.27
2018-12-18T01:15:44.601Z,24.10
2018-12-18T01:16:47.213Z,24.95
2018-12-18T01:17:49.735Z,20.52
2018-12-18T01:18:52.245Z,28.42
2018-12-18T01:19:54.752Z,20.80
2018-12-18T01:20:57.257Z,24.00
2018-12-18T01:21:59.845Z,24.65
2018-12-18T01:23:02.363Z,28.62
2018-12-18T01:24:04.919Z,26.23
2018-12-18T01:25:07.529Z,22.07
2018-12-18T01:26:10.034Z,25.35
2018-12-18T01:27:12.555Z,23.25
2018-12-18T01:28:15.118Z,27.52
2018-12-18T01:29:17.625Z,22.45
2018-12-18T01:30:20.140Z,21.25
2018-12-18T01:31:22.653Z,21.82
2018-12-18T01:32:25.221Z,21.15
2018-12-18T01:33:27.767Z,21.77
2018-12-18T01:34:30.281Z,15.98
2018-12-18T01:35:32.786Z,26.75
2018-12-18T01:36:35.301Z,25.52
2018-12-18T01:37:37.857Z,18.15
2018-12-18T01:38:40.382Z,16.62
2018-12-18T01:39:42.897Z,15.98
2018-12-18T01:40:45.458Z,20.82
2018-12-18T01:41:47.972Z,19.87
2018-12-18T01:42:50.518Z,18.25
2018-12-18T01:43:53.090Z,20.70
2018-12-18T01:44:55.734Z,23.60
2018-12-18T01:45:58.250Z,18.80
2018-12-18T01:47:00.765Z,20.65
2018-12-18T01:48:03.277Z,20.20
2018-12-18T01:49:05.791Z,16.67
2018-12-18T01:50:08.436Z,19.62
2018-12-18T01:51:10.949Z,16.35
2018-12-18T01:52:13.462Z,20.12
2018-12-18T01:53:15.974Z,20.85
2018-12-18T01:54:18.488Z,16.93
2018-12-18T01:55:21.029Z,20.10
2018-12-18T01:56:23.542Z,21.62
2018-12-18T01:57:26.094Z,18.37
2018-12-18T01:58:28.601Z,17.65
2018-12-18T01:59:31.110Z,15.90
2018-12-18T02:00:33.662Z,21.33
2018-12-18T02:01:36.175Z,17.50
2018-12-18T02:02:38.694Z,25.92
2018-12-18T02:03:41.200Z,18.92
2018-12-18T02:04:43.713Z,22.00
2018-12-18T02:05:46.318Z,23.00
2018-12-18T02:06:48.837Z,19.20
2018-12-18T02:07:51.449Z,19.67
2018-12-18T02:08:54.000Z,21.12
2018-12-18T02:09:56.509Z,17.32
2018-12-18T02:10:59.111Z,16.87
2018-12-18T02:12:01.693Z,14.28
2018-12-18T02:13:04.201Z,16.50
2018-12-18T02:14:06.713Z,16.85
2018-12-18T02:15:09.285Z,23.02
2018-12-18T02:16:11.900Z,17.60
2018-12-18T02:17:14.425Z,16.25
2018-12-18T02:18:16.941Z,16.73
2018-12-18T02:19:19.514Z,19.87
2018-12-18T02:20:22.034Z,18.12
2018-12-18T02:21:24.568Z,16.80
2018-12-18T02:22:27.135Z,25.92
2018-12-18T02:23:29.653Z,16.80
2018-12-18T02:24:32.161Z,17.20
2018-12-18T02:25:34.670Z,19.10
2018-12-18T02:26:37.181Z,22.52
2018-12-18T02:27:39.729Z,17.45
2018-12-18T02:28:42.241Z,18.48
2018-12-18T02:29:44.805Z,19.10
2018-12-18T02:30:47.322Z,17.48
2018-12-18T02:31:49.884Z,18.15
2018-12-18T02:32:52.398Z,23.40
2018-12-18T02:33:54.905Z,16.48
2018-12-18T02:34:57.453Z,16.60
2018-12-18T02:35:59.957Z,23.02
2018-12-18T02:37:02.456Z,18.67
2018-12-18T02:38:04.965Z,18.77
2018-12-18T02:39:07.464Z,20.57
2018-12-18T02:40:10.014Z,21.73
2018-12-18T02:41:12.576Z,14.73
2018-12-18T02:42:15.078Z,16.93
2018-12-18T02:43:17.594Z,19.15
2018-12-18T02:44:20.101Z,17.17
2018-12-18T02:45:22.628Z,19.07
2018-12-18T02:46:25.186Z,15.70
2018-12-18T02:47:27.695Z,21.85
2018-12-18T02:48:30.360Z,20.25
2018-12-18T02:49:32.873Z,18.40
2018-12-18T02:51:44.267Z,22.52
2018-12-18T02:52:46.851Z,23.27
2018-12-18T02:53:49.369Z,17.23
2018-12-18T02:54:51.891Z,20.95
2018-12-18T02:55:54.399Z,15.05
2018-12-18T02:56:56.919Z,18.23
2018-12-18T02:57:59.469Z,15.00
2018-12-18T02:59:02.043Z,17.65
2018-12-18T03:00:06.255Z,18.48
2018-12-18T03:01:08.761Z,16.40
2018-12-18T03:02:11.281Z,14.65
2018-12-18T03:03:13.837Z,16.80
2018-12-18T03:04:21.358Z,17.57
2018-12-18T03:05:20.939Z,12.43
2018-12-18T03:06:23.446Z,12.98
2018-12-18T03:07:25.957Z,15.88
2018-12-18T03:08:28.506Z,19.40
2018-12-18T03:09:31.026Z,15.08
2018-12-18T03:10:33.532Z,16.80
2018-12-18T03:11:36.045Z,20.62
2018-12-18T03:12:38.553Z,14.68
2018-12-18T03:13:41.105Z,19.27
2018-12-18T03:14:43.615Z,16.73
2018-12-18T03:15:46.130Z,14.43
2018-12-18T03:16:48.639Z,13.28
2018-12-18T03:17:51.144Z,20.17
2018-12-18T03:18:53.817Z,16.62
2018-12-18T03:19:56.340Z,16.45
2018-12-18T03:20:58.858Z,13.75
2018-12-18T03:22:01.372Z,15.30
2018-12-18T03:23:03.881Z,14.25
2018-12-18T03:24:06.421Z,16.07
2018-12-18T03:25:09.033Z,16.80
2018-12-18T03:26:11.637Z,14.50
2018-12-18T03:27:14.153Z,13.98
2018-12-18T03:28:16.671Z,27.87
2018-12-18T03:29:19.337Z,14.25
2018-12-18T03:30:21.875Z,20.55
2018-12-18T03:31:24.497Z,19.37
2018-12-18T03:32:27.419Z,16.57
2018-12-18T03:33:29.938Z,22.73
2018-12-18T03:34:32.456Z,15.70
2018-12-18T03:35:34.975Z,16.30
2018-12-18T03:36:37.550Z,15.35
2018-12-18T03:37:40.065Z,19.35
2018-12-18T03:38:42.581Z,15.13
2018-12-18T03:39:45.089Z,17.40
2018-12-18T03:40:47.599Z,14.28
2018-12-18T03:41:50.150Z,14.30
2018-12-18T03:42:52.669Z,19.70
2018-12-18T03:43:55.178Z,12.95
2018-12-18T03:44:57.733Z,19.25
2018-12-18T03:46:00.235Z,13.65
2018-12-18T03:47:02.767Z,15.72
2018-12-18T03:48:05.630Z,14.68
2018-12-18T03:49:08.137Z,14.47
2018-12-18T03:50:10.730Z,12.85
2018-12-18T03:51:13.233Z,18.50
2018-12-18T03:52:15.747Z,18.00
2018-12-18T03:53:18.259Z,16.50
2018-12-18T03:54:20.879Z,18.10
2018-12-18T03:55:23.390Z,23.52
2018-12-18T03:56:25.900Z,15.43
2018-12-18T03:57:28.413Z,17.77
2018-12-18T03:58:30.918Z,13.80
2018-12-18T03:59:33.530Z,20.30
2018-12-18T04:00:36.052Z,16.10
2018-12-18T04:01:38.571Z,17.07
2018-12-18T04:02:41.090Z,21.42
2018-12-18T04:03:43.605Z,17.07
2018-12-18T04:04:46.214Z,17.57
2018-12-18T04:05:48.731Z,18.42
2018-12-18T04:06:51.245Z,13.50
2018-12-18T04:07:53.763Z,17.48
2018-12-18T04:08:56.281Z,13.62
2018-12-18T04:09:58.837Z,14.47
2018-12-18T04:11:01.354Z,17.07
2018-12-18T04:12:08.749Z,19.62
2018-12-18T04:13:11.274Z,21.48
2018-12-18T04:14:13.777Z,13.40
2018-12-18T04:15:16.369Z,12.33
2018-12-18T04:16:18.965Z,17.70
2018-12-18T04:17:21.477Z,20.50
2018-12-18T04:18:23.987Z,14.90
2018-12-18T04:19:26.502Z,22.42
2018-12-18T04:20:29.017Z,12.65
2018-12-18T04:21:31.580Z,14.73
2018-12-18T04:22:34.094Z,17.87
2018-12-18T04:23:36.611Z,13.68
2018-12-18T04:24:39.119Z,13.83
2018-12-18T04:25:41.626Z,16.77
2018-12-18T04:26:44.181Z,18.23
2018-12-18T04:27:46.734Z,14.93
2018-12-18T04:28:49.246Z,18.07
2018-12-18T04:29:51.753Z,12.95
2018-12-18T04:30:54.257Z,18.10
2018-12-18T04:31:56.812Z,15.85
2018-12-18T04:32:59.313Z,15.83
2018-12-18T04:34:01.826Z,21.93
2018-12-18T04:35:04.938Z,11.75
2018-12-18T04:36:07.449Z,13.38
2018-12-18T04:37:10.003Z,11.63
2018-12-18T04:38:12.517Z,17.17
2018-12-18T04:39:15.037Z,13.88
2018-12-18T04:40:17.548Z,18.98
2018-12-18T04:41:20.078Z,19.57
2018-12-18T04:42:22.638Z,15.95
2018-12-18T04:43:25.288Z,17.87
2018-12-18T04:44:27.797Z,22.32
2018-12-18T04:45:30.301Z,17.05
2018-12-18T04:46:32.808Z,17.75
2018-12-18T04:47:35.352Z,15.50
2018-12-18T04:48:37.853Z,12.03
2018-12-18T04:49:40.372Z,14.93
2018-12-18T04:50:42.915Z,14.98
2018-12-18T04:51:45.422Z,19.42
2018-12-18T04:52:47.929Z,15.60
2018-12-18T04:53:50.474Z,11.73
2018-12-18T04:54:53.030Z,12.13
2018-12-18T04:55:55.533Z,12.30
2018-12-18T04:56:58.038Z,17.40
2018-12-18T04:58:00.549Z,13.28
2018-12-18T04:59:03.141Z,16.02
2018-12-18T05:00:07.161Z,13.00
2018-12-18T05:01:09.719Z,11.00
2018-12-18T05:02:12.311Z,10.65
2018-12-18T05:03:14.817Z,17.70
2018-12-18T05:04:17.373Z,13.13
2018-12-18T05:05:19.885Z,14.38
2018-12-18T05:06:22.392Z,11.85
2018-12-18T05:07:24.913Z,13.70
2018-12-18T05:08:27.425Z,14.83
2018-12-18T05:09:29.961Z,13.60
2018-12-18T05:10:32.463Z,16.02
2018-12-18T05:11:34.970Z,13.72
2018-12-18T05:12:37.510Z,13.68
2018-12-18T05:13:40.062Z,10.03
2018-12-18T05:14:42.573Z,17.98
2018-12-18T05:15:45.069Z,14.43
2018-12-18T05:16:47.589Z,12.10
2018-12-18T05:17:50.137Z,17.62
2018-12-18T05:18:52.649Z,11.68
2018-12-18T05:19:55.153Z,15.10
2018-12-18T05:20:57.656Z,10.50
2018-12-18T05:22:00.165Z,11.90
2018-12-18T05:23:02.710Z,13.65
2018-12-18T05:24:05.218Z,12.35
2018-12-18T05:25:07.826Z,15.48
2018-12-18T05:26:10.332Z,12.75
2018-12-18T05:27:12.881Z,13.03
2018-12-18T05:28:16.287Z,13.18
2018-12-18T05:29:19.031Z,9.15
2018-12-18T05:30:21.537Z,11.25
2018-12-18T05:31:24.090Z,11.35
2018-12-18T05:32:26.629Z,13.13
2018-12-18T05:33:29.134Z,13.72
2018-12-18T05:34:31.641Z,14.53
2018-12-18T05:35:34.158Z,14.00
2018-12-18T05:36:36.661Z,8.93
2018-12-18T05:37:39.208Z,11.30
2018-12-18T05:38:41.714Z,13.88
2018-12-18T05:39:44.671Z,8.38
2018-12-18T05:40:47.182Z,8.83
2018-12-18T05:41:49.689Z,8.68
2018-12-18T05:42:52.230Z,11.53
2018-12-18T05:43:54.901Z,11.88
2018-12-18T05:44:57.413Z,17.02
2018-12-18T05:45:59.914Z,9.45
2018-12-18T05:47:02.421Z,15.23
2018-12-18T05:48:04.947Z,10.88
2018-12-18T05:49:07.496Z,10.80
2018-12-18T05:50:09.996Z,8.25
2018-12-18T05:51:12.516Z,12.23
2018-12-18T05:52:15.028Z,14.30
2018-12-18T05:53:18.622Z,13.93
2018-12-18T05:54:21.170Z,13.55
2018-12-18T05:55:23.683Z,13.83
2018-12-18T05:56:26.189Z,12.25
2018-12-18T05:57:28.702Z,11.97
2018-12-18T05:58:31.214Z,11.50
2018-12-18T05:59:33.771Z,12.93
2018-12-18T06:00:36.273Z,9.53
2018-12-18T06:01:38.778Z,12.07
2018-12-18T06:02:41.289Z,10.48
2018-12-18T06:03:43.789Z,8.93
2018-12-18T06:04:46.325Z,10.08
2018-12-18T06:05:48.853Z,10.25
2018-12-18T06:06:51.367Z,9.75
2018-12-18T06:07:53.912Z,7.90
2018-12-18T06:08:56.518Z,10.20
2018-12-18T06:09:59.032Z,14.55
2018-12-18T06:11:01.541Z,12.37
2018-12-18T06:12:04.056Z,10.60
2018-12-18T06:13:06.741Z,19.35
2018-12-18T06:14:09.246Z,8.40
2018-12-18T06:15:11.754Z,10.08
2018-12-18T06:16:14.260Z,18.25
2018-12-18T06:17:16.769Z,11.57
2018-12-18T06:18:19.317Z,9.98
2018-12-18T06:19:21.821Z,11.25
2018-12-18T06:20:24.341Z,13.10
2018-12-18T06:21:26.896Z,9.93
2018-12-18T06:22:29.405Z,11.03
2018-12-18T06:23:31.954Z,14.13
2018-12-18T06:24:34.460Z,7.90
2018-12-18T06:25:36.975Z,17.10
2018-12-18T06:26:39.490Z,14.85
2018-12-18T06:27:41.998Z,9.58
2018-12-18T06:28:44.533Z,8.63
2018-12-18T06:29:47.091Z,9.28
2018-12-18T06:30:49.610Z,12.55
2018-12-18T06:31:52.217Z,10.38
2018-12-18T06:32:54.790Z,10.98
2018-12-18T06:33:57.292Z,9.20
2018-12-18T06:34:59.801Z,15.58
2018-12-18T06:36:02.318Z,12.30
2018-12-18T06:37:04.869Z,10.98
2018-12-18T06:38:07.374Z,8.93
2018-12-18T06:39:09.932Z,12.40
2018-12-18T06:40:12.488Z,9.18
2018-12-18T06:41:14.991Z,14.87
2018-12-18T06:42:17.498Z,8.23
2018-12-18T06:43:20.005Z,13.58
2018-12-18T06:44:22.563Z,10.15
2018-12-18T06:45:25.068Z,10.93
2018-12-18T06:46:27.639Z,12.00
2018-12-18T06:47:30.149Z,18.77
2018-12-18T06:48:32.649Z,14.13
2018-12-18T06:49:35.186Z,12.47
2018-12-18T06:50:37.701Z,12.53
2018-12-18T06:51:40.213Z,12.00
2018-12-18T06:52:42.734Z,11.73
2018-12-18T06:53:45.249Z,14.10
2018-12-18T06:54:47.802Z,16.73
2018-12-18T06:55:50.353Z,12.10
2018-12-18T06:56:52.864Z,13.38
2018-12-18T06:57:55.374Z,12.60
2018-12-18T06:58:57.889Z,18.52
2018-12-18T07:00:00.474Z,39.05
2018-12-18T07:01:03.023Z,15.30
2018-12-18T07:02:05.536Z,19.17
2018-12-18T07:03:08.046Z,19.73
2018-12-18T07:04:10.553Z,10.10
2018-12-18T07:05:16.666Z,10.60
2018-12-18T07:06:17.633Z,16.48
2018-12-18T07:07:20.137Z,12.23
2018-12-18T07:08:22.643Z,12.15
2018-12-18T07:09:25.152Z,13.30
2018-12-18T07:10:27.656Z,12.18
2018-12-18T07:11:30.201Z,18.98
2018-12-18T07:12:32.706Z,13.30
2018-12-18T07:13:35.207Z,19.37
2018-12-18T07:14:37.745Z,13.10
2018-12-18T07:15:40.252Z,12.63
2018-12-18T07:16:42.754Z,17.30
2018-12-18T07:17:45.269Z,12.90
2018-12-18T07:18:47.817Z,10.03
2018-12-18T07:19:50.370Z,16.30
2018-12-18T07:20:52.873Z,10.85
2018-12-18T07:21:55.379Z,14.80
2018-12-18T07:22:57.893Z,12.85
2018-12-18T07:24:00.392Z,13.98
2018-12-18T07:25:02.997Z,17.30
2018-12-18T07:26:05.502Z,18.23
2018-12-18T07:27:08.009Z,30.50
2018-12-18T07:28:10.516Z,16.50
2018-12-18T07:29:13.031Z,13.32
2018-12-18T07:30:15.585Z,15.78
2018-12-18T07:31:18.096Z,15.60
2018-12-18T07:32:20.655Z,17.42
2018-12-18T07:33:23.167Z,17.95
2018-12-18T07:34:25.700Z,16.65
2018-12-18T07:35:28.358Z,11.88
2018-12-18T07:36:30.866Z,13.58
2018-12-18T07:37:33.377Z,14.93
2018-12-18T07:38:35.883Z,16.95
2018-12-18T07:39:38.406Z,19.10
2018-12-18T07:40:40.966Z,15.20
2018-12-18T07:41:43.470Z,14.38
2018-12-18T07:42:45.978Z,15.15
2018-12-18T07:43:48.485Z,15.50
2018-12-18T07:44:51.093Z,13.85
2018-12-18T07:45:53.605Z,14.00
2018-12-18T07:46:56.119Z,15.05
2018-12-18T07:47:58.617Z,15.50
2018-12-18T07:49:01.131Z,16.90
2018-12-18T07:50:04.981Z,16.25
2018-12-18T07:51:07.481Z,21.05
2018-12-18T07:52:09.992Z,14.68
2018-12-18T07:53:12.504Z,15.40
2018-12-18T07:54:15.017Z,15.23
2018-12-18T07:55:17.552Z,16.27
2018-12-18T07:56:20.056Z,9.85
2018-12-18T07:57:22.560Z,14.25
2018-12-18T07:58:25.073Z,9.78
2018-12-18T07:59:27.623Z,13.80
2018-12-18T08:00:30.141Z,10.35
2018-12-18T08:01:32.645Z,9.60
2018-12-18T08:02:35.189Z,12.40
2018-12-18T08:03:37.778Z,13.10
2018-12-18T08:04:40.277Z,13.85
2018-12-18T08:05:42.830Z,13.70
2018-12-18T08:06:45.341Z,11.45
2018-12-18T08:07:47.851Z,12.47
2018-12-18T08:08:50.409Z,12.37
2018-12-18T08:09:52.921Z,14.25
2018-12-18T08:10:55.433Z,10.65
2018-12-18T08:11:57.989Z,14.15
2018-12-18T08:13:00.529Z,10.80
2018-12-18T08:14:03.091Z,13.40
2018-12-18T08:15:06.504Z,14.73
2018-12-18T08:16:09.014Z,10.88
2018-12-18T08:17:11.549Z,12.47
2018-12-18T08:18:14.057Z,12.15
2018-12-18T08:19:16.563Z,10.30
2018-12-18T08:20:19.121Z,10.50
2018-12-18T08:21:21.631Z,12.75
2018-12-18T08:22:24.187Z,14.68
2018-12-18T08:23:26.694Z,13.58
2018-12-18T08:24:29.202Z,13.78
2018-12-18T08:25:31.707Z,16.60
2018-12-18T08:26:34.209Z,16.48
2018-12-18T08:27:36.758Z,12.45
2018-12-18T08:28:39.269Z,13.78
2018-12-18T08:29:41.778Z,14.87
2018-12-18T08:30:44.321Z,12.60
2018-12-18T08:31:46.842Z,11.75
2018-12-18T08:32:49.346Z,13.05
2018-12-18T08:33:51.845Z,13.75
2018-12-18T08:34:54.389Z,18.25
2018-12-18T08:35:56.894Z,12.33
2018-12-18T08:36:59.401Z,16.77
2018-12-18T08:38:01.910Z,18.70
2018-12-18T08:39:06.973Z,21.97
2018-12-18T08:40:09.529Z,15.32
2018-12-18T08:41:12.025Z,16.55
2018-12-18T08:42:14.524Z,11.15
2018-12-18T08:43:17.032Z,15.53
2018-12-18T08:44:19.589Z,11.50
2018-12-18T08:45:22.138Z,15.90
2018-12-18T08:46:24.646Z,14.23
2018-12-18T08:47:27.148Z,9.85
2018-12-18T08:48:29.650Z,13.62
2018-12-18T08:49:32.149Z,16.37
2018-12-18T08:50:34.712Z,12.60
2018-12-18T08:51:37.394Z,10.63
2018-12-18T08:52:39.909Z,13.83
2018-12-18T08:53:42.421Z,16.12
2018-12-18T08:54:44.924Z,12.25
2018-12-18T08:55:47.469Z,12.60
2018-12-18T08:56:49.982Z,10.82
2018-12-18T08:57:52.488Z,12.23
2018-12-18T08:58:55.061Z,15.23
2018-12-18T08:59:57.576Z,12.98
2018-12-18T09:01:00.109Z,22.02
2018-12-18T09:02:02.670Z,18.17
2018-12-18T09:03:05.214Z,15.85
2018-12-18T09:04:07.718Z,13.95
2018-12-18T09:05:10.392Z,14.95
2018-12-18T09:06:12.892Z,10.98
2018-12-18T09:07:15.444Z,12.13
2018-12-18T09:08:17.993Z,16.42
2018-12-18T09:09:20.561Z,13.72
2018-12-18T09:10:23.063Z,11.88
2018-12-18T09:11:25.576Z,14.85
2018-12-18T09:12:28.089Z,12.70
2018-12-18T09:13:30.618Z,18.77
2018-12-18T09:14:33.117Z,13.53
2018-12-18T09:15:41.265Z,12.43
2018-12-18T09:16:49.528Z,17.02
2018-12-18T09:17:52.033Z,12.47
2018-12-18T09:18:54.533Z,17.02
2018-12-18T09:19:57.046Z,12.80
2018-12-18T09:20:59.610Z,15.03
2018-12-18T09:22:02.162Z,17.70
2018-12-18T09:23:04.661Z,16.20
2018-12-18T09:24:07.208Z,9.23
2018-12-18T09:25:09.772Z,11.80
2018-12-18T09:26:12.275Z,12.23
2018-12-18T09:27:14.825Z,9.65
2018-12-18T09:28:17.340Z,15.85
2018-12-18T09:29:19.874Z,13.83
2018-12-18T09:30:22.433Z,15.98
2018-12-18T09:31:24.941Z,10.93
2018-12-18T09:32:27.490Z,15.08
2018-12-18T09:33:30.051Z,11.18
2018-12-18T09:34:32.601Z,12.45
2018-12-18T09:35:35.114Z,11.75
2018-12-18T09:36:37.633Z,15.85
2018-12-18T09:37:42.243Z,15.72
2018-12-18T09:38:50.537Z,15.40
2018-12-18T09:39:53.040Z,12.85
2018-12-18T09:41:01.233Z,14.95
2018-12-18T09:42:09.401Z,12.78
2018-12-18T09:43:17.549Z,11.95
2018-12-18T09:44:20.065Z,11.73
2018-12-18T09:45:22.570Z,10.13
2018-12-18T09:46:25.117Z,11.30
2018-12-18T09:47:27.629Z,16.20
2018-12-18T09:48:30.192Z,9.90
2018-12-18T09:49:32.702Z,12.82
2018-12-18T09:50:35.206Z,9.75
2018-12-18T09:51:37.758Z,11.95
2018-12-18T09:52:40.330Z,8.45
2018-12-18T09:53:42.931Z,11.70
2018-12-18T09:54:45.444Z,15.30
2018-12-18T09:55:48.002Z,12.35
2018-12-18T09:56:50.563Z,12.50
2018-12-18T09:57:57.222Z,10.58
2018-12-18T09:58:59.920Z,8.48
2018-12-18T10:00:02.476Z,8.43
2018-12-18T10:01:05.153Z,10.23
2018-12-18T10:02:07.661Z,16.77
2018-12-18T10:03:10.220Z,12.15
2018-12-18T10:04:12.725Z,11.12
2018-12-18T10:05:15.231Z,16.17
2018-12-18T10:06:17.777Z,21.25
2018-12-18T10:07:20.328Z,10.15
2018-12-18T10:08:22.846Z,11.85
2018-12-18T10:09:25.412Z,11.93
2018-12-18T10:10:28.042Z,10.48
2018-12-18T10:11:30.549Z,9.48
2018-12-18T10:12:38.678Z,16.95
2018-12-18T10:13:41.187Z,9.73
2018-12-18T10:14:43.689Z,18.40
2018-12-18T10:15:46.229Z,13.83
2018-12-18T10:16:48.729Z,10.43
2018-12-18T10:17:51.288Z,12.60
2018-12-18T10:18:53.852Z,13.00
2018-12-18T10:19:56.459Z,16.00
2018-12-18T10:20:58.972Z,8.43
2018-12-18T10:22:01.525Z,12.82
2018-12-18T10:23:04.030Z,10.10
2018-12-18T10:24:06.613Z,7.08
2018-12-18T10:25:09.200Z,6.97
2018-12-18T10:26:11.703Z,9.63
2018-12-18T10:27:14.201Z,14.07
2018-12-18T10:28:16.709Z,8.75
2018-12-18T10:29:19.222Z,14.10
2018-12-18T10:30:21.762Z,5.35
2018-12-18T10:31:24.297Z,9.75
2018-12-18T10:32:26.848Z,11.03
2018-12-18T10:33:29.384Z,9.83
2018-12-18T10:34:31.946Z,5.00
2018-12-18T10:35:36.692Z,8.15
2018-12-18T10:36:39.101Z,6.17
2018-12-18T10:37:41.654Z,6.83
2018-12-18T10:38:44.254Z,3.80
2018-12-18T10:39:46.756Z,5.35
2018-12-18T10:40:49.258Z,10.05
2018-12-18T10:41:51.837Z,4.03
2018-12-18T10:42:54.341Z,6.45
2018-12-18T10:43:56.856Z,4.78
2018-12-18T10:44:59.359Z,9.23
2018-12-18T10:46:01.935Z,6.78
2018-12-18T10:47:04.773Z,5.35
2018-12-18T10:48:07.447Z,4.78
2018-12-18T10:49:09.984Z,5.05
2018-12-18T10:50:12.533Z,9.73
2018-12-18T10:51:15.045Z,4.40
2018-12-18T10:52:17.550Z,7.40
2018-12-18T10:53:20.094Z,10.35
2018-12-18T10:54:22.597Z,10.38
2018-12-18T10:55:25.132Z,6.55
2018-12-18T10:56:27.634Z,4.05
2018-12-18T10:57:30.137Z,7.87
2018-12-18T10:58:32.642Z,4.72
2018-12-18T10:59:35.173Z,3.42
2018-12-18T11:00:43.396Z,6.92
2018-12-18T11:01:46.900Z,6.83
2018-12-18T11:02:49.514Z,6.40
2018-12-18T11:03:52.020Z,7.17
2018-12-18T11:04:54.571Z,7.70
2018-12-18T11:05:57.077Z,12.47
2018-12-18T11:06:59.577Z,5.60
2018-12-18T11:08:02.121Z,7.70
2018-12-18T11:09:08.267Z,5.75
2018-12-18T11:10:10.917Z,10.72
2018-12-18T11:11:13.470Z,7.12
2018-12-18T11:12:17.926Z,3.90
2018-12-18T11:13:20.461Z,10.63
2018-12-18T11:14:23.001Z,9.10
2018-12-18T11:15:25.546Z,8.20
2018-12-18T11:16:28.212Z,8.13
2018-12-18T11:17:30.745Z,7.47
2018-12-18T11:18:33.333Z,5.33
2018-12-18T11:19:35.838Z,4.55
2018-12-18T11:20:38.345Z,5.53
2018-12-18T11:21:40.849Z,4.78
2018-12-18T11:22:43.346Z,6.67
2018-12-18T11:23:45.890Z,5.15
2018-12-18T11:24:48.406Z,6.83
2018-12-18T11:25:50.914Z,10.65
2018-12-18T11:26:53.424Z,10.48
2018-12-18T11:27:55.957Z,7.97
2018-12-18T11:28:58.471Z,6.92
2018-12-18T11:30:00.969Z,5.80
2018-12-18T11:31:03.481Z,6.40
2018-12-18T11:32:06.069Z,7.83
2018-12-18T11:33:08.577Z,4.97
2018-12-18T11:34:11.079Z,4.78
2018-12-18T11:35:13.635Z,6.45
2018-12-18T11:36:16.714Z,7.25
2018-12-18T11:37:19.504Z,6.10
2018-12-18T11:38:22.010Z,11.68
2018-12-18T11:39:24.536Z,4.40
2018-12-18T11:40:27.036Z,2.60
2018-12-18T11:41:29.538Z,8.88
2018-12-18T11:42:32.037Z,6.08
2018-12-18T11:43:34.587Z,3.02
2018-12-18T11:44:37.097Z,2.98
2018-12-18T11:45:39.610Z,6.95
2018-12-18T11:46:42.111Z,3.70
2018-12-18T11:47:44.610Z,3.95
2018-12-18T11:48:47.148Z,6.22
2018-12-18T11:49:49.697Z,6.70
2018-12-18T11:50:52.214Z,6.37
2018-12-18T11:51:54.723Z,8.88
2018-12-18T11:52:57.243Z,5.17
2018-12-18T11:53:59.789Z,5.78
2018-12-18T11:55:02.311Z,5.30
2018-12-18T11:56:04.907Z,3.95
2018-12-18T11:57:07.413Z,7.92
2018-12-18T11:58:09.915Z,4.50
2018-12-18T11:59:12.457Z,3.55
2018-12-18T12:00:16.327Z,6.47
2018-12-18T12:01:18.826Z,9.95
2018-12-18T12:02:21.361Z,6.03
2018-12-18T12:03:23.882Z,4.30
2018-12-18T12:04:26.392Z,8.53
2018-12-18T12:05:28.901Z,5.37
2018-12-18T12:06:31.446Z,6.83
2018-12-18T12:07:33.961Z,3.17
2018-12-18T12:08:36.569Z,3.10
2018-12-18T12:09:39.113Z,2.98
2018-12-18T12:10:41.612Z,8.68
2018-12-18T12:11:44.117Z,6.75
2018-12-18T12:12:46.653Z,5.65
2018-12-18T12:13:49.281Z,7.42
2018-12-18T12:14:51.829Z,2.70
2018-12-18T12:15:54.328Z,4.80
2018-12-18T12:16:57.502Z,6.97
2018-12-18T12:18:00.001Z,5.75
2018-12-18T12:19:02.545Z,5.60
2018-12-18T12:20:05.212Z,4.78
2018-12-18T12:21:07.721Z,3.85
2018-12-18T12:22:10.218Z,3.80
2018-12-18T12:23:12.721Z,3.60
2018-12-18T12:24:15.258Z,9.98
2018-12-18T12:25:17.760Z,3.75
2018-12-18T12:26:25.852Z,4.65
2018-12-18T12:27:35.309Z,11.95
2018-12-18T12:28:37.822Z,4.85
2018-12-18T12:29:40.367Z,4.08
2018-12-18T12:30:42.866Z,7.47
2018-12-18T12:31:45.367Z,3.83
2018-12-18T12:32:47.910Z,10.50
2018-12-18T12:33:50.410Z,7.40
2018-12-18T12:34:52.953Z,3.42
2018-12-18T12:35:55.470Z,8.63
2018-12-18T12:36:57.972Z,7.20
2018-12-18T12:38:00.530Z,5.37
2018-12-18T12:39:03.913Z,5.92
2018-12-18T12:40:06.913Z,4.55
2018-12-18T12:41:09.423Z,10.82
2018-12-18T12:42:11.925Z,8.35
2018-12-18T12:43:14.461Z,9.60
2018-12-18T12:44:16.997Z,7.95
2018-12-18T12:45:20.307Z,4.90
2018-12-18T12:46:22.862Z,2.75
2018-12-18T12:47:25.366Z,12.98
2018-12-18T12:48:29.865Z,5.17
2018-12-18T12:49:42.306Z,5.30
2018-12-18T12:50:45.345Z,4.83
2018-12-18T12:51:47.982Z,9.60
2018-12-18T12:52:50.486Z,7.08
2018-12-18T12:53:52.989Z,8.78
2018-12-18T12:54:55.491Z,6.12
2018-12-18T12:55:57.987Z,4.58
2018-12-18T12:57:00.570Z,4.28
2018-12-18T12:58:03.075Z,7.72
2018-12-18T12:59:05.581Z,7.30
2018-12-18T13:00:08.470Z,11.97
2018-12-18T13:01:11.012Z,8.25
2018-12-18T13:02:13.548Z,7.15
2018-12-18T13:03:16.059Z,5.90
2018-12-18T13:04:18.557Z,7.78
2018-12-18T13:05:21.098Z,5.33
2018-12-18T13:06:23.602Z,5.05
2018-12-18T13:07:26.122Z,8.13
2018-12-18T13:08:28.619Z,6.03
2018-12-18T13:09:31.125Z,5.25
2018-12-18T13:10:33.666Z,12.07
2018-12-18T13:11:36.284Z,16.00
2018-12-18T13:12:38.785Z,8.88
2018-12-18T13:13:41.334Z,4.53
2018-12-18T13:14:43.875Z,9.68
2018-12-18T13:15:46.373Z,6.12
2018-12-18T13:16:49.014Z,4.95
2018-12-18T13:17:51.530Z,19.80
2018-12-18T13:18:54.041Z,5.72
2018-12-18T13:19:56.552Z,5.87
2018-12-18T13:20:59.068Z,5.70
2018-12-18T13:22:01.653Z,8.75
2018-12-18T13:23:04.175Z,10.25
2018-12-18T13:24:06.681Z,5.37
2018-12-18T13:25:09.235Z,9.65
2018-12-18T13:26:11.774Z,13.70
2018-12-18T13:27:14.318Z,9.65
2018-12-18T13:28:16.822Z,10.98
2018-12-18T13:29:19.494Z,15.10
2018-12-18T13:30:21.997Z,11.15
2018-12-18T13:31:24.508Z,5.65
2018-12-18T13:32:27.038Z,9.18
2018-12-18T13:33:29.547Z,4.03
2018-12-18T13:34:32.094Z,5.97
2018-12-18T13:35:34.599Z,5.80
2018-12-18T13:36:42.874Z,8.73